Safety.Discipline.Integrity

Call Now: (805) 469.3343

This email address is being protected from spambots. You need JavaScript enabled to view it. This email address is being protected from spambots. You need JavaScript enabled to view it.

icon fb   youtube 50

Phantom Aviation

Phantom Aviation is the premier Private Flight Academy in Southern California. We teach our students utilizing state of the art training techniques that leverage natural learning abilities to ensure our pilots become the safest pilots in the sky. This all starts on the ground where we train and specialize in flight safety utilizing our integrated pilot training techniques and the most advanced flight training materials in the industry. In the air we use our legendary SISO-SBTTM scenario based training that demands students fully apply their training in order to advance to the next lesson. At Phantom, we not only teach to FAA test standards, we go above and beyond providing our pilots with the most real world experience that can be garnered in flight training. Phantom pilot graduates are in a class of their own; the Phantom Elite.

At Phantom Aviation we have excellent aircraft under our maintenance program that sacrifices nothing to ensure your safety, competitive rates, superior training, and experienced professional instructors who are dedicated to help you realize your dream of becoming Phantom Elite.

Schedulepointe

User Name: Password :

Airport Diagram

Latest Weather

  • KCMA METAR Apr 22, 2014 | 03:55 am

    KCMA 220855Z AUTO 00000KT 6SM BR CLR 14/12 A2996 RMK AO2 SLP152 T01390117 58002

    Read more...
  • KOXR METAR Apr 22, 2014 | 03:51 am

    KOXR 220851Z AUTO 00000KT 5SM BR CLR 13/12 A2996 RMK AO2 SLP144 T01330117 58003

    Read more...
Go to top